createdAt,value
2018-05-01T00:01:35.044Z,996.65
2018-05-01T00:02:34.978Z,996.57
2018-05-01T00:04:27.962Z,996.65
2018-05-01T00:05:27.928Z,996.62
2018-05-01T00:07:20.982Z,996.75
2018-05-01T00:08:20.917Z,996.71
2018-05-01T00:10:13.742Z,996.76
2018-05-01T00:11:13.678Z,996.67
2018-05-01T00:13:06.694Z,996.78
2018-05-01T00:14:06.642Z,996.78
2018-05-01T00:15:59.843Z,996.79
2018-05-01T00:16:59.768Z,996.82
2018-05-01T00:18:52.587Z,996.86
2018-05-01T00:19:52.547Z,996.87
2018-05-01T00:21:45.533Z,996.90
2018-05-01T00:22:45.476Z,996.89
2018-05-01T00:24:38.704Z,996.92
2018-05-01T00:25:38.607Z,996.90
2018-05-01T00:27:31.412Z,996.91
2018-05-01T00:28:31.363Z,996.88
2018-05-01T00:30:24.365Z,996.88
2018-05-01T00:31:24.368Z,996.95
2018-05-01T00:33:17.157Z,996.93
2018-05-01T00:34:17.092Z,996.88
2018-05-01T00:36:10.007Z,996.89
2018-05-01T00:37:09.918Z,996.93
2018-05-01T00:39:02.971Z,996.94
2018-05-01T00:40:02.909Z,996.97
2018-05-01T00:41:55.727Z,996.97
2018-05-01T00:42:55.659Z,996.95
2018-05-01T00:44:48.648Z,996.96
2018-05-01T00:45:48.599Z,996.98
2018-05-01T00:47:41.889Z,996.94
2018-05-01T00:48:41.822Z,996.98
2018-05-01T00:50:34.632Z,997.08
2018-05-01T00:51:34.666Z,997.11
2018-05-01T00:53:27.402Z,997.05
2018-05-01T00:54:27.362Z,997.12
2018-05-01T00:56:20.272Z,997.02
2018-05-01T00:57:20.194Z,997.06
2018-05-01T00:59:13.162Z,997.08
2018-05-01T01:00:12.955Z,997.08
2018-05-01T01:02:05.940Z,997.12
2018-05-01T01:03:05.898Z,997.10
2018-05-01T01:04:58.908Z,997.14
2018-05-01T01:05:58.868Z,997.10
2018-05-01T01:07:51.770Z,997.14
2018-05-01T01:08:51.730Z,997.14
2018-05-01T01:10:44.639Z,997.11
2018-05-01T01:11:44.510Z,997.12
2018-05-01T01:13:37.520Z,997.24
2018-05-01T01:14:37.452Z,997.19
2018-05-01T01:16:30.467Z,997.19
2018-05-01T01:17:30.409Z,997.23
2018-05-01T01:19:23.372Z,997.29
2018-05-01T01:20:23.204Z,997.25
2018-05-01T01:22:16.212Z,997.28
2018-05-01T01:23:16.143Z,997.31
2018-05-01T01:25:09.134Z,997.34
2018-05-01T01:26:09.079Z,997.33
2018-05-01T01:28:02.319Z,997.37
2018-05-01T01:29:02.267Z,997.43
2018-05-01T01:30:55.246Z,997.47
2018-05-01T01:31:55.188Z,997.47
2018-05-01T01:33:48.001Z,997.45
2018-05-01T01:34:47.994Z,997.46
2018-05-01T01:36:40.775Z,997.46
2018-05-01T01:37:40.718Z,997.48
2018-05-01T01:39:33.555Z,997.50
2018-05-01T01:40:33.493Z,997.51
2018-05-01T01:42:26.540Z,997.46
2018-05-01T01:43:26.470Z,997.47
2018-05-01T01:45:19.478Z,997.54
2018-05-01T01:46:19.525Z,997.59
2018-05-01T01:48:12.214Z,997.59
2018-05-01T01:49:12.167Z,997.65
2018-05-01T01:51:05.249Z,997.65
2018-05-01T01:52:05.078Z,997.68
2018-05-01T01:53:57.924Z,997.59
2018-05-01T01:54:57.826Z,997.73
2018-05-01T01:56:50.833Z,997.68
2018-05-01T01:57:50.788Z,997.83
2018-05-01T01:59:43.594Z,997.73
2018-05-01T02:00:43.601Z,997.76
2018-05-01T02:02:36.845Z,997.74
2018-05-01T02:03:36.771Z,997.77
2018-05-01T02:05:29.764Z,997.76
2018-05-01T02:06:29.814Z,997.85
2018-05-01T02:08:22.936Z,997.80
2018-05-01T02:09:22.901Z,997.83
2018-05-01T02:11:15.891Z,997.85
2018-05-01T02:12:15.853Z,997.87
2018-05-01T02:14:08.671Z,997.90
2018-05-01T02:15:08.622Z,997.86
2018-05-01T02:17:01.862Z,997.97
2018-05-01T02:18:01.771Z,997.90
2018-05-01T02:19:54.605Z,998.03
2018-05-01T02:20:54.540Z,997.92
2018-05-01T02:22:47.552Z,997.99
2018-05-01T02:23:47.505Z,998.03
2018-05-01T02:25:40.339Z,998.05
2018-05-01T02:26:40.251Z,998.10
2018-05-01T02:28:33.152Z,998.09
2018-05-01T02:29:33.091Z,998.11
2018-05-01T02:31:26.095Z,998.13
2018-05-01T02:32:26.041Z,998.22
2018-05-01T02:34:18.862Z,998.15
2018-05-01T02:35:18.799Z,998.13
2018-05-01T02:37:11.796Z,998.23
2018-05-01T02:38:11.764Z,998.25
2018-05-01T02:40:04.663Z,998.24
2018-05-01T02:41:04.645Z,998.22
2018-05-01T02:42:57.565Z,998.30
2018-05-01T02:43:57.531Z,998.32
2018-05-01T02:45:50.541Z,998.29
2018-05-01T02:46:50.526Z,998.36
2018-05-01T02:48:43.759Z,998.42
2018-05-01T02:49:43.628Z,998.47
2018-05-01T02:51:36.631Z,998.39
2018-05-01T02:52:36.654Z,998.44
2018-05-01T02:54:29.841Z,998.48
2018-05-01T02:55:29.726Z,998.43
2018-05-01T02:57:22.710Z,998.51
2018-05-01T02:58:22.667Z,998.47
2018-05-01T03:00:15.496Z,998.54
2018-05-01T03:01:15.452Z,998.56
2018-05-01T03:03:08.653Z,998.53
2018-05-01T03:04:08.573Z,998.60
2018-05-01T03:06:01.585Z,998.57
2018-05-01T03:07:01.542Z,998.52
2018-05-01T03:08:54.495Z,998.52
2018-05-01T03:09:54.501Z,998.53
2018-05-01T03:11:47.365Z,998.51
2018-05-01T03:12:47.304Z,998.56
2018-05-01T03:14:40.331Z,998.56
2018-05-01T03:15:40.281Z,998.53
2018-05-01T03:17:33.266Z,998.57
2018-05-01T03:18:33.314Z,998.62
2018-05-01T03:20:26.056Z,998.60
2018-05-01T03:21:25.987Z,998.60
2018-05-01T03:23:18.895Z,998.61
2018-05-01T03:24:18.839Z,998.57
2018-05-01T03:26:11.727Z,998.59
2018-05-01T03:27:11.602Z,998.63
2018-05-01T03:29:04.596Z,998.63
2018-05-01T03:30:04.551Z,998.64
2018-05-01T03:31:57.556Z,998.65
2018-05-01T03:32:57.499Z,998.63
2018-05-01T03:34:50.377Z,998.66
2018-05-01T03:35:50.333Z,998.71
2018-05-01T03:37:43.536Z,998.71
2018-05-01T03:38:43.481Z,998.76
2018-05-01T03:40:36.290Z,998.81
2018-05-01T03:41:36.233Z,998.78
2018-05-01T03:43:29.453Z,998.87
2018-05-01T03:44:29.370Z,998.82
2018-05-01T03:46:22.196Z,998.82
2018-05-01T03:47:22.147Z,998.84
2018-05-01T03:49:15.121Z,998.86
2018-05-01T03:50:15.112Z,998.86
2018-05-01T03:52:08.332Z,998.85
2018-05-01T03:53:08.241Z,998.76
2018-05-01T03:55:01.205Z,998.82
2018-05-01T03:56:01.180Z,998.81
2018-05-01T03:57:53.981Z,998.83
2018-05-01T03:58:53.934Z,998.85
2018-05-01T04:00:46.730Z,998.84
2018-05-01T04:01:46.708Z,998.83
2018-05-01T04:03:39.746Z,998.91
2018-05-01T04:04:39.516Z,998.90
2018-05-01T04:06:32.504Z,998.98
2018-05-01T04:07:32.461Z,998.86
2018-05-01T04:09:25.476Z,998.96
2018-05-01T04:10:25.471Z,998.99
2018-05-01T04:12:18.252Z,999.04
2018-05-01T04:13:18.196Z,999.06
2018-05-01T04:15:10.991Z,999.11
2018-05-01T04:16:10.969Z,999.15
2018-05-01T04:18:03.957Z,999.14
2018-05-01T04:19:03.903Z,999.16
2018-05-01T04:20:56.886Z,999.14
2018-05-01T04:21:56.861Z,999.18
2018-05-01T04:23:50.139Z,999.24
2018-05-01T04:24:50.013Z,999.24
2018-05-01T04:26:43.022Z,999.26
2018-05-01T04:27:42.981Z,999.23
2018-05-01T04:29:35.979Z,999.29
2018-05-01T04:30:35.923Z,999.29
2018-05-01T04:32:28.935Z,999.36
2018-05-01T04:33:28.870Z,999.38
2018-05-01T04:35:21.944Z,999.40
2018-05-01T04:36:21.864Z,999.39
2018-05-01T04:38:14.830Z,999.48
2018-05-01T04:39:14.783Z,999.51
2018-05-01T04:41:07.884Z,999.53
2018-05-01T04:42:07.793Z,999.53
2018-05-01T04:44:00.801Z,999.64
2018-05-01T04:45:00.911Z,999.65
2018-05-01T04:46:54.029Z,999.67
2018-05-01T04:47:53.881Z,999.70
2018-05-01T04:49:46.723Z,999.79
2018-05-01T04:50:46.649Z,999.81
2018-05-01T04:52:39.628Z,999.84
2018-05-01T04:53:39.604Z,999.85
2018-05-01T04:55:32.927Z,999.84
2018-05-01T04:56:32.737Z,999.89
2018-05-01T04:58:25.739Z,999.94
2018-05-01T04:59:25.733Z,999.96
2018-05-01T05:01:18.712Z,999.99
2018-05-01T05:02:18.628Z,1000.01
2018-05-01T05:04:11.442Z,1000.03
2018-05-01T05:05:11.393Z,1000.08
2018-05-01T05:07:04.269Z,1000.16
2018-05-01T05:08:04.201Z,1000.15
2018-05-01T05:09:57.214Z,1000.16
2018-05-01T05:10:57.152Z,1000.23
2018-05-01T05:12:50.124Z,1000.20
2018-05-01T05:13:50.129Z,1000.25
2018-05-01T05:15:42.993Z,1000.23
2018-05-01T05:16:42.940Z,1000.30
2018-05-01T05:18:35.753Z,1000.34
2018-05-01T05:19:35.706Z,1000.31
2018-05-01T05:21:28.564Z,1000.40
2018-05-01T05:22:28.467Z,1000.39
2018-05-01T05:24:21.478Z,1000.42
2018-05-01T05:25:21.575Z,1000.44
2018-05-01T05:27:14.633Z,1000.48
2018-05-01T05:28:14.577Z,1000.43
2018-05-01T05:30:07.493Z,1000.38
2018-05-01T05:31:07.334Z,1000.44
2018-05-01T05:33:00.342Z,1000.32
2018-05-01T05:34:00.366Z,1000.37
2018-05-01T05:35:53.605Z,1000.42
2018-05-01T05:36:53.393Z,1000.39
2018-05-01T05:38:46.435Z,1000.42
2018-05-01T05:39:46.388Z,1000.46
2018-05-01T05:41:39.404Z,1000.59
2018-05-01T05:42:39.339Z,1000.62
2018-05-01T05:44:32.276Z,1000.64
2018-05-01T05:45:32.179Z,1000.71
2018-05-01T05:47:25.246Z,1000.73
2018-05-01T05:48:25.179Z,1000.77
2018-05-01T05:50:17.985Z,1000.80
2018-05-01T05:51:18.058Z,1000.85
2018-05-01T05:53:11.323Z,1000.90
2018-05-01T05:54:11.093Z,1000.93
2018-05-01T05:56:04.113Z,1000.97
2018-05-01T05:57:04.024Z,1001.01
2018-05-01T05:58:56.991Z,1001.08
2018-05-01T05:59:56.954Z,1001.09
2018-05-01T06:01:50.191Z,1001.02
2018-05-01T06:02:50.066Z,1001.08
2018-05-01T06:04:43.064Z,1001.11
2018-05-01T06:05:43.114Z,1001.06
2018-05-01T06:07:36.038Z,1001.07
2018-05-01T06:08:35.966Z,1001.08
2018-05-01T06:10:28.835Z,1001.10
2018-05-01T06:11:28.815Z,1001.14
2018-05-01T06:13:21.801Z,1001.10
2018-05-01T06:14:21.745Z,1001.16
2018-05-01T06:16:14.778Z,1001.16
2018-05-01T06:17:14.731Z,1001.17
2018-05-01T06:19:07.728Z,1001.18
2018-05-01T06:20:07.631Z,1001.23
2018-05-01T06:22:00.771Z,1001.20
2018-05-01T06:23:00.635Z,1001.19
2018-05-01T06:24:54.096Z,1001.26
2018-05-01T06:25:53.932Z,1001.23
2018-05-01T06:27:46.881Z,1001.24
2018-05-01T06:28:46.824Z,1001.30
2018-05-01T06:30:39.650Z,1001.28
2018-05-01T06:31:39.745Z,1001.32
2018-05-01T06:33:32.711Z,1001.31
2018-05-01T06:34:32.665Z,1001.33
2018-05-01T06:36:25.669Z,1001.41
2018-05-01T06:37:25.741Z,1001.33
2018-05-01T06:39:18.614Z,1001.46
2018-05-01T06:40:18.560Z,1001.44
2018-05-01T06:42:11.855Z,1001.42
2018-05-01T06:43:11.715Z,1001.46
2018-05-01T06:45:04.715Z,1001.54
2018-05-01T06:46:04.675Z,1001.56
2018-05-01T06:47:57.504Z,1001.55
2018-05-01T06:48:57.579Z,1001.58
2018-05-01T06:50:50.686Z,1001.60
2018-05-01T06:51:50.551Z,1001.62
2018-05-01T06:53:43.561Z,1001.69
2018-05-01T06:54:43.506Z,1001.73
2018-05-01T06:56:36.515Z,1001.74
2018-05-01T06:57:36.476Z,1001.83
2018-05-01T06:59:29.550Z,1001.80
2018-05-01T07:00:29.310Z,1001.83
2018-05-01T07:02:22.304Z,1001.79
2018-05-01T07:03:22.271Z,1001.86
2018-05-01T07:05:15.755Z,1001.89
2018-05-01T07:06:15.614Z,1001.87
2018-05-01T07:08:08.592Z,1001.87
2018-05-01T07:09:08.549Z,1001.84
2018-05-01T07:11:01.415Z,1001.89
2018-05-01T07:12:01.331Z,1001.93
2018-05-01T07:13:54.592Z,1001.88
2018-05-01T07:14:54.467Z,1001.99
2018-05-01T07:16:47.457Z,1001.95
2018-05-01T07:17:47.432Z,1001.96
2018-05-01T07:19:40.421Z,1001.94
2018-05-01T07:20:40.382Z,1002.07
2018-05-01T07:22:33.280Z,1002.12
2018-05-01T07:23:33.151Z,1002.06
2018-05-01T07:25:26.140Z,1002.03
2018-05-01T07:26:26.091Z,1002.00
2018-05-01T07:28:19.084Z,1002.07
2018-05-01T07:29:19.063Z,1002.08
2018-05-01T07:31:12.311Z,1002.12
2018-05-01T07:32:12.196Z,1002.13
2018-05-01T07:34:05.209Z,1002.08
2018-05-01T07:35:05.162Z,1002.16
2018-05-01T07:36:58.151Z,1002.11
2018-05-01T07:37:58.103Z,1002.15
2018-05-01T07:39:50.962Z,1002.20
2018-05-01T07:40:50.934Z,1002.21
2018-05-01T07:42:44.000Z,1002.23
2018-05-01T07:43:43.950Z,1002.23
2018-05-01T07:45:36.994Z,1002.30
2018-05-01T07:46:36.909Z,1002.32
2018-05-01T07:48:29.966Z,1002.36
2018-05-01T07:49:29.812Z,1002.35
2018-05-01T07:51:22.802Z,1002.43
2018-05-01T07:52:22.762Z,1002.32
2018-05-01T07:54:15.757Z,1002.40
2018-05-01T07:55:15.722Z,1002.35
2018-05-01T07:57:08.917Z,1002.34
2018-05-01T07:58:08.870Z,1002.32
2018-05-01T08:00:01.837Z,1002.28
2018-05-01T08:01:01.910Z,1002.31
2018-05-01T08:02:54.618Z,1002.29
2018-05-01T08:03:54.594Z,1002.29
2018-05-01T08:05:47.727Z,1002.31
2018-05-01T08:06:47.692Z,1002.36
2018-05-01T08:08:40.751Z,1002.37
2018-05-01T08:09:40.815Z,1002.26
2018-05-01T08:11:33.701Z,1002.33
2018-05-01T08:12:33.668Z,1002.34
2018-05-01T08:14:26.652Z,1002.35
2018-05-01T08:15:26.605Z,1002.37
2018-05-01T08:17:19.663Z,1002.38
2018-05-01T08:18:19.650Z,1002.35
2018-05-01T08:20:12.833Z,1002.48
2018-05-01T08:21:12.726Z,1002.42
2018-05-01T08:23:05.756Z,1002.38
2018-05-01T08:24:05.706Z,1002.37
2018-05-01T08:25:58.703Z,1002.45
2018-05-01T08:26:58.629Z,1002.43
2018-05-01T08:28:51.697Z,1002.41
2018-05-01T08:29:51.502Z,1002.39
2018-05-01T08:31:44.617Z,1002.51
2018-05-01T08:32:44.482Z,1002.52
2018-05-01T08:34:37.534Z,1002.54
2018-05-01T08:35:37.489Z,1002.60
2018-05-01T08:37:30.340Z,1002.56
2018-05-01T08:38:30.247Z,1002.58
2018-05-01T08:40:23.109Z,1002.58
2018-05-01T08:41:23.006Z,1002.56
2018-05-01T08:43:16.025Z,1002.41
2018-05-01T08:44:15.968Z,1002.51
2018-05-01T08:46:08.989Z,1002.59
2018-05-01T08:47:08.952Z,1002.59
2018-05-01T08:49:02.087Z,1002.59
2018-05-01T08:50:02.003Z,1002.63
2018-05-01T08:51:55.015Z,1002.73
2018-05-01T08:52:54.978Z,1002.84
2018-05-01T08:54:48.289Z,1002.75
2018-05-01T08:55:48.141Z,1002.78
2018-05-01T08:57:40.939Z,1002.76
2018-05-01T08:58:40.899Z,1002.76
2018-05-01T09:00:33.940Z,1002.81
2018-05-01T09:01:33.928Z,1002.81
2018-05-01T09:03:27.122Z,1002.78
2018-05-01T09:04:27.009Z,1002.83
2018-05-01T09:06:20.047Z,1002.79
2018-05-01T09:07:20.068Z,1002.81
2018-05-01T09:09:12.855Z,1002.87
2018-05-01T09:10:12.782Z,1002.90
2018-05-01T09:12:05.917Z,1002.87
2018-05-01T09:13:05.868Z,1002.86
2018-05-01T09:14:58.883Z,1002.86
2018-05-01T09:15:58.848Z,1002.90
2018-05-01T09:17:51.908Z,1002.99
2018-05-01T09:18:51.779Z,1002.95
2018-05-01T09:20:44.713Z,1002.91
2018-05-01T09:21:44.580Z,1002.95
2018-05-01T09:23:37.595Z,1003.05
2018-05-01T09:24:37.563Z,1002.97
2018-05-01T09:26:30.642Z,1003.06
2018-05-01T09:27:30.598Z,1003.07
2018-05-01T09:29:23.694Z,1003.03
2018-05-01T09:30:23.615Z,1003.04
2018-05-01T09:32:16.646Z,1003.06
2018-05-01T09:33:16.601Z,1002.98
2018-05-01T09:35:09.877Z,1003.18
2018-05-01T09:36:09.726Z,1003.13
2018-05-01T09:38:02.590Z,1003.12
2018-05-01T09:39:02.565Z,1003.10
2018-05-01T09:40:55.520Z,1003.18
2018-05-01T09:41:55.646Z,1003.14
2018-05-01T09:43:48.713Z,1003.18
2018-05-01T09:44:48.678Z,1003.14
2018-05-01T09:46:41.675Z,1003.23
2018-05-01T09:47:41.708Z,1003.32
2018-05-01T09:49:34.619Z,1003.41
2018-05-01T09:50:34.576Z,1003.46
2018-05-01T09:52:27.486Z,1003.23
2018-05-01T09:53:27.351Z,1003.76
2018-05-01T09:55:20.375Z,1003.16
2018-05-01T09:56:20.346Z,1003.60
2018-05-01T09:58:13.192Z,1003.77
2018-05-01T09:59:13.148Z,1003.22
2018-05-01T10:01:06.434Z,1003.26
2018-05-01T10:02:06.333Z,1003.57
2018-05-01T10:03:59.379Z,1003.33
2018-05-01T10:04:59.299Z,1003.81
2018-05-01T10:06:52.366Z,1003.53
2018-05-01T10:07:52.300Z,1003.99
2018-05-01T10:09:45.362Z,1003.91
2018-05-01T10:10:45.138Z,1003.89
2018-05-01T10:12:38.177Z,1003.93
2018-05-01T10:13:37.907Z,1003.63
2018-05-01T10:15:31.093Z,1003.81
2018-05-01T10:16:31.083Z,1003.50
2018-05-01T10:18:24.304Z,1003.43
2018-05-01T10:19:24.340Z,1004.09
2018-05-01T10:21:17.333Z,1003.38
2018-05-01T10:22:17.283Z,1003.53
2018-05-01T10:24:10.381Z,1003.58
2018-05-01T10:25:10.202Z,1004.13
2018-05-01T10:27:03.255Z,1004.26
2018-05-01T10:28:03.196Z,1003.66
2018-05-01T10:29:56.229Z,1003.54
2018-05-01T10:30:56.189Z,1003.61
2018-05-01T10:32:49.012Z,1004.20
2018-05-01T10:33:48.985Z,1004.27
2018-05-01T10:35:41.836Z,1004.23
2018-05-01T10:36:41.786Z,1003.65
2018-05-01T10:38:34.892Z,1003.58
2018-05-01T10:39:34.772Z,1004.17
2018-05-01T10:41:28.130Z,1003.58
2018-05-01T10:42:28.051Z,1003.64
2018-05-01T10:44:21.099Z,1003.73
2018-05-01T10:45:21.165Z,1004.25
2018-05-01T10:47:14.346Z,1004.29
2018-05-01T10:48:14.244Z,1004.28
2018-05-01T10:50:07.094Z,1004.06
2018-05-01T10:51:07.052Z,1004.27
2018-05-01T10:53:00.165Z,1004.18
2018-05-01T10:54:00.085Z,1004.18
2018-05-01T10:55:52.947Z,1004.20
2018-05-01T10:56:52.898Z,1004.19
2018-05-01T10:58:45.800Z,1004.24
2018-05-01T10:59:45.696Z,1004.17
2018-05-01T11:01:38.739Z,1004.16
2018-05-01T11:02:38.685Z,1004.16
2018-05-01T11:04:32.170Z,1004.11
2018-05-01T11:05:32.167Z,1004.19
2018-05-01T11:07:25.193Z,1003.79
2018-05-01T11:08:25.229Z,1003.76
2018-05-01T11:10:18.366Z,1004.33
2018-05-01T11:11:18.117Z,1003.84
2018-05-01T11:13:11.197Z,1003.96
2018-05-01T11:14:11.128Z,1003.54
2018-05-01T11:16:04.492Z,1004.20
2018-05-01T11:17:04.334Z,1004.29
2018-05-01T11:18:57.384Z,1004.39
2018-05-01T11:19:57.332Z,1004.00
2018-05-01T11:21:50.758Z,1004.03
2018-05-01T11:22:50.469Z,1003.81
2018-05-01T11:24:43.599Z,1004.27
2018-05-01T11:25:43.474Z,1004.28
2018-05-01T11:27:36.322Z,1004.29
2018-05-01T11:28:36.462Z,1004.32
2018-05-01T11:30:29.089Z,1004.12
2018-05-01T11:31:29.077Z,1003.80
2018-05-01T11:33:21.902Z,1003.81
2018-05-01T11:34:21.855Z,1003.90
2018-05-01T11:36:14.857Z,1003.89
2018-05-01T11:37:14.681Z,1004.05
2018-05-01T11:39:07.743Z,1004.04
2018-05-01T11:40:07.696Z,1003.97
2018-05-01T11:42:00.751Z,1003.96
2018-05-01T11:43:00.728Z,1003.90
2018-05-01T11:44:53.892Z,1004.05
2018-05-01T11:45:53.748Z,1004.07
2018-05-01T11:47:46.581Z,1004.15
2018-05-01T11:48:46.528Z,1004.01
2018-05-01T11:50:39.585Z,1004.08
2018-05-01T11:51:39.524Z,1003.99
2018-05-01T11:53:32.487Z,1004.23
2018-05-01T11:54:32.306Z,1004.07
2018-05-01T11:56:25.381Z,1004.07
2018-05-01T11:57:25.364Z,1004.08
2018-05-01T11:59:18.396Z,1004.28
2018-05-01T12:00:18.344Z,1004.24
2018-05-01T12:02:11.182Z,1004.06
2018-05-01T12:03:11.132Z,1004.05
2018-05-01T12:05:04.202Z,1004.40
2018-05-01T12:06:04.166Z,1004.16
2018-05-01T12:07:57.188Z,1004.10
2018-05-01T12:08:57.139Z,1004.07
2018-05-01T12:10:50.006Z,1004.35
2018-05-01T12:11:49.947Z,1004.31
2018-05-01T12:13:42.957Z,1004.32
2018-05-01T12:14:42.763Z,1004.09
2018-05-01T12:16:35.796Z,1004.18
2018-05-01T12:17:35.768Z,1004.10
2018-05-01T12:19:29.149Z,1004.51
2018-05-01T12:20:28.966Z,1004.52
2018-05-01T12:22:22.014Z,1004.09
2018-05-01T12:23:21.982Z,1004.07
2018-05-01T12:25:14.861Z,1004.10
2018-05-01T12:26:14.825Z,1004.09
2018-05-01T12:28:07.677Z,1004.12
2018-05-01T12:29:07.647Z,1004.08
2018-05-01T12:31:00.633Z,1004.10
2018-05-01T12:32:00.484Z,1004.11
2018-05-01T12:33:53.312Z,1004.11
2018-05-01T12:34:53.268Z,1004.14
2018-05-01T12:36:46.578Z,1004.33
2018-05-01T12:37:46.266Z,1004.49
2018-05-01T12:39:39.127Z,1004.11
2018-05-01T12:40:39.060Z,1004.14
2018-05-01T12:42:32.003Z,1004.13
2018-05-01T12:43:31.881Z,1004.12
2018-05-01T12:45:24.951Z,1004.10
2018-05-01T12:46:24.877Z,1004.14
2018-05-01T12:48:17.926Z,1004.24
2018-05-01T12:49:17.906Z,1004.49
2018-05-01T12:51:10.737Z,1004.44
2018-05-01T12:52:10.678Z,1004.61
2018-05-01T12:54:03.718Z,1004.16
2018-05-01T12:55:03.687Z,1004.17
2018-05-01T12:56:56.732Z,1004.20
2018-05-01T12:57:56.677Z,1004.23
2018-05-01T12:59:49.596Z,1004.25
2018-05-01T13:00:49.573Z,1004.34
2018-05-01T13:02:42.757Z,1004.34
2018-05-01T13:03:42.725Z,1004.26
2018-05-01T13:05:36.038Z,1004.30
2018-05-01T13:06:35.860Z,1004.27
2018-05-01T13:08:28.683Z,1004.60
2018-05-01T13:09:28.643Z,1004.56
2018-05-01T13:11:21.699Z,1004.59
2018-05-01T13:12:21.762Z,1004.55
2018-05-01T13:14:14.892Z,1004.26
2018-05-01T13:15:14.823Z,1004.22
2018-05-01T13:17:07.875Z,1004.29
2018-05-01T13:18:07.973Z,1004.30
2018-05-01T13:20:01.138Z,1004.26
2018-05-01T13:21:01.037Z,1004.34
2018-05-01T13:22:54.412Z,1004.41
2018-05-01T13:23:54.359Z,1004.52
2018-05-01T13:25:47.799Z,1004.43
2018-05-01T13:26:47.386Z,1004.41
2018-05-01T13:28:40.440Z,1004.49
2018-05-01T13:29:40.396Z,1004.44
2018-05-01T13:31:33.783Z,1004.36
2018-05-01T13:32:33.817Z,1004.47
2018-05-01T13:34:26.628Z,1004.72
2018-05-01T13:35:26.661Z,1004.62
2018-05-01T13:37:19.818Z,1004.45
2018-05-01T13:38:19.748Z,1004.45
2018-05-01T13:40:12.793Z,1004.59
2018-05-01T13:41:12.757Z,1004.61
2018-05-01T13:43:06.040Z,1004.60
2018-05-01T13:44:05.968Z,1004.76
2018-05-01T13:45:59.073Z,1004.53
2018-05-01T13:46:59.134Z,1004.47
2018-05-01T13:48:52.327Z,1004.52
2018-05-01T13:49:52.246Z,1004.49
2018-05-01T13:51:45.035Z,1004.54
2018-05-01T13:52:44.993Z,1004.54
2018-05-01T13:54:38.071Z,1004.76
2018-05-01T13:55:38.009Z,1004.80
2018-05-01T13:57:31.195Z,1004.77
2018-05-01T13:58:31.139Z,1004.58
2018-05-01T14:00:24.033Z,1004.56
2018-05-01T14:01:23.953Z,1004.46
2018-05-01T14:03:17.345Z,1004.45
2018-05-01T14:04:17.224Z,1004.42
2018-05-01T14:06:10.265Z,1004.42
2018-05-01T14:07:10.219Z,1004.43
2018-05-01T14:09:03.103Z,1004.48
2018-05-01T14:10:03.010Z,1004.48
2018-05-01T14:11:56.209Z,1004.48
2018-05-01T14:12:56.190Z,1004.75
2018-05-01T14:14:49.260Z,1004.44
2018-05-01T14:15:49.309Z,1004.47
2018-05-01T14:17:42.493Z,1004.48
2018-05-01T14:18:42.428Z,1004.47
2018-05-01T14:20:35.237Z,1004.46
2018-05-01T14:21:35.230Z,1004.49
2018-05-01T15:23:48.838Z,1004.53
2018-05-01T15:24:48.714Z,1004.62
2018-05-01T15:26:41.719Z,1004.53
2018-05-01T15:27:41.686Z,1004.65
2018-05-01T15:29:34.707Z,1004.63
2018-05-01T15:30:34.657Z,1004.50
2018-05-01T15:32:27.761Z,1004.49
2018-05-01T15:33:27.453Z,1004.45
2018-05-01T15:35:20.455Z,1004.48
2018-05-01T15:36:20.252Z,1004.48
2018-05-01T15:38:13.292Z,1004.46
2018-05-01T15:39:13.223Z,1004.44
2018-05-01T15:41:06.245Z,1004.43
2018-05-01T15:42:06.229Z,1004.43
2018-05-01T15:43:59.276Z,1004.45
2018-05-01T15:44:59.197Z,1004.39
2018-05-01T15:46:51.940Z,1004.37
2018-05-01T15:47:51.916Z,1004.33
2018-05-01T15:49:44.957Z,1004.35
2018-05-01T15:50:44.940Z,1004.40
2018-05-01T15:52:37.691Z,1004.34
2018-05-01T15:53:37.686Z,1004.36
2018-05-01T15:55:30.487Z,1004.37
2018-05-01T15:56:30.445Z,1004.36
2018-05-01T15:58:23.548Z,1004.43
2018-05-01T15:59:23.461Z,1004.41
2018-05-01T16:01:16.493Z,1004.46
2018-05-01T16:02:16.459Z,1004.44
2018-05-01T16:04:09.735Z,1004.37
2018-05-01T16:05:09.643Z,1004.42
2018-05-01T16:07:02.459Z,1004.42
2018-05-01T16:08:02.419Z,1004.36
2018-05-01T16:09:55.273Z,1004.38
2018-05-01T16:10:55.199Z,1004.35
2018-05-01T16:12:48.485Z,1004.39
2018-05-01T16:13:48.508Z,1004.42
2018-05-01T16:15:41.449Z,1004.43
2018-05-01T16:16:41.428Z,1004.55
2018-05-01T16:18:34.737Z,1004.41
2018-05-01T16:19:34.570Z,1004.41
2018-05-01T16:21:27.596Z,1004.40
2018-05-01T16:22:27.592Z,1004.38
2018-05-01T16:24:20.816Z,1004.41
2018-05-01T16:25:20.707Z,1004.44
2018-05-01T16:27:13.727Z,1004.56
2018-05-01T16:28:13.668Z,1004.49
2018-05-01T16:30:06.611Z,1004.42
2018-05-01T16:31:06.454Z,1004.41
2018-05-01T16:32:59.706Z,1004.37
2018-05-01T16:33:59.660Z,1004.36
2018-05-01T16:35:52.694Z,1004.38
2018-05-01T16:36:52.608Z,1004.36
2018-05-01T16:38:45.422Z,1004.38
2018-05-01T16:39:45.401Z,1004.39
2018-05-01T16:41:38.702Z,1004.41
2018-05-01T16:42:38.588Z,1004.40
2018-05-01T16:44:31.629Z,1004.44
2018-05-01T16:45:31.735Z,1004.43
2018-05-01T16:47:24.892Z,1004.44
2018-05-01T16:48:24.766Z,1004.39
2018-05-01T16:50:17.778Z,1004.41
2018-05-01T16:51:17.726Z,1004.36
2018-05-01T16:53:11.142Z,1004.34
2018-05-01T16:54:10.990Z,1004.34
2018-05-01T16:56:04.013Z,1004.39
2018-05-01T16:57:03.991Z,1004.38
2018-05-01T16:58:56.968Z,1004.36
2018-05-01T16:59:56.938Z,1004.40
2018-05-01T17:01:49.980Z,1004.39
2018-05-01T17:02:49.763Z,1004.43
2018-05-01T17:04:42.823Z,1004.36
2018-05-01T17:05:42.746Z,1004.37
2018-05-01T17:07:35.765Z,1004.39
2018-05-01T17:08:35.745Z,1004.39
2018-05-01T17:10:28.707Z,1004.42
2018-05-01T17:11:28.572Z,1004.36
2018-05-01T17:13:21.622Z,1004.41
2018-05-01T17:14:21.533Z,1004.40
2018-05-01T17:16:14.615Z,1004.39
2018-05-01T17:17:14.564Z,1004.40
2018-05-01T17:19:07.519Z,1004.37
2018-05-01T17:20:07.460Z,1004.40
2018-05-01T17:22:00.478Z,1004.38
2018-05-01T17:23:00.453Z,1004.40
2018-05-01T17:24:53.523Z,1004.44
2018-05-01T17:25:53.444Z,1004.45
2018-05-01T17:27:46.478Z,1004.42
2018-05-01T17:28:46.304Z,1004.46
2018-05-01T17:30:39.167Z,1004.43
2018-05-01T17:31:39.052Z,1004.42
2018-05-01T17:33:32.095Z,1004.41
2018-05-01T17:34:32.008Z,1004.39
2018-05-01T17:36:25.062Z,1004.36
2018-05-01T17:37:25.044Z,1004.35
2018-05-01T17:39:17.888Z,1004.40
2018-05-01T17:40:17.810Z,1004.38
2018-05-01T17:42:10.936Z,1004.36
2018-05-01T17:43:11.012Z,1004.37
2018-05-01T17:45:04.291Z,1004.39
2018-05-01T17:46:04.080Z,1004.37
2018-05-01T17:47:57.284Z,1004.34
2018-05-01T17:48:57.308Z,1004.32
2018-05-01T17:50:50.063Z,1004.38
2018-05-01T17:51:50.019Z,1004.40
2018-05-01T17:53:42.850Z,1004.41
2018-05-01T17:54:42.835Z,1004.42
2018-05-01T17:56:35.833Z,1004.46
2018-05-01T17:57:35.860Z,1004.45
2018-05-01T17:59:28.853Z,1004.44
2018-05-01T18:00:28.779Z,1004.44
2018-05-01T18:02:21.744Z,1004.42
2018-05-01T18:03:21.749Z,1004.43
2018-05-01T18:05:14.750Z,1004.45
2018-05-01T18:06:14.711Z,1004.48
2018-05-01T18:08:07.707Z,1004.45
2018-05-01T18:09:07.700Z,1004.46
2018-05-01T18:11:00.641Z,1004.51
2018-05-01T18:12:00.570Z,1004.49
2018-05-01T18:13:53.596Z,1004.52
2018-05-01T18:14:53.567Z,1004.50
2018-05-01T18:16:46.408Z,1004.51
2018-05-01T18:17:46.409Z,1004.54
2018-05-01T18:19:39.651Z,1004.55
2018-05-01T18:20:39.528Z,1004.53
2018-05-01T18:22:32.579Z,1004.57
2018-05-01T18:23:32.518Z,1004.54
2018-05-01T18:25:25.540Z,1004.51
2018-05-01T18:26:25.550Z,1004.53
2018-05-01T18:28:18.438Z,1004.57
2018-05-01T18:29:18.280Z,1004.52
2018-05-01T18:31:11.377Z,1004.51
2018-05-01T18:32:11.325Z,1004.53
2018-05-01T18:34:04.438Z,1004.53
2018-05-01T18:35:04.374Z,1004.48
2018-05-01T18:36:57.344Z,1004.50